Time;durP1;ratioP1;P1;durP2;ratioP2;P2;SDS_P1;SDS_P2;PMS_P1;PMS_P2;Temp;Humidity;BMP_temperature;BMP_pressure;BME280_temperature;BME280_humidity;BME280_pressure;Samples;Min_cycle;Max_cycle;Signal;HPM_P1;HPM_P2
2024/02/22 00:01:10;;;;;;;9.03;4.37;;;8.90;99.90;;;;;;4998747;28;20245;-68
2024/02/22 00:03:39;;;;;;;5.37;3.33;;;8.90;99.90;;;;;;5009673;28;20233;-68
2024/02/22 00:06:06;;;;;;;6.93;3.80;;;8.90;99.90;;;;;;5008832;28;20273;-68
2024/02/22 00:08:33;;;;;;;8.13;3.17;;;8.90;99.90;;;;;;5017649;28;20690;-69
2024/02/22 00:11:01;;;;;;;7.17;3.90;;;8.90;99.90;;;;;;5017185;28;20195;-68
2024/02/22 00:13:28;;;;;;;15.33;6.73;;;8.90;99.90;;;;;;5009512;28;20206;-68
2024/02/22 00:15:55;;;;;;;12.57;6.37;;;8.90;99.90;;;;;;4997156;28;20557;-67
2024/02/22 00:18:23;;;;;;;15.13;6.40;;;8.90;99.90;;;;;;5010230;28;20194;-68
2024/02/22 00:20:52;;;;;;;14.27;6.90;;;8.90;99.90;;;;;;5024032;28;20205;-68
2024/02/22 00:23:19;;;;;;;15.27;7.17;;;8.80;99.90;;;;;;5008389;28;20629;-68
2024/02/22 00:25:46;;;;;;;13.70;7.37;;;8.80;99.90;;;;;;5009764;28;20193;-67
2024/02/22 00:28:13;;;;;;;14.03;7.10;;;8.80;99.90;;;;;;5014096;28;20197;-67
2024/02/22 00:30:40;;;;;;;16.60;7.33;;;8.80;99.90;;;;;;5005240;28;20630;-68
2024/02/22 00:33:07;;;;;;;16.03;6.97;;;8.80;99.90;;;;;;5008340;28;20550;-69
2024/02/22 00:35:34;;;;;;;11.97;6.73;;;8.80;99.90;;;;;;5017489;28;20245;-68
2024/02/22 00:38:02;;;;;;;12.93;6.20;;;8.80;99.90;;;;;;5013632;28;20193;-69
2024/02/22 00:40:29;;;;;;;11.47;6.07;;;8.80;99.90;;;;;;5008763;28;20203;-68
2024/02/22 00:42:56;;;;;;;11.10;6.30;;;8.90;99.90;;;;;;5010790;28;20202;-67
2024/02/22 00:45:23;;;;;;;10.23;5.57;;;8.90;99.90;;;;;;4993870;28;20674;-68
2024/02/22 00:47:50;;;;;;;8.37;4.87;;;8.80;99.90;;;;;;5011642;28;20256;-68
2024/02/22 00:50:18;;;;;;;9.03;5.00;;;8.80;99.90;;;;;;4993466;28;20205;-68
2024/02/22 00:52:46;;;;;;;9.20;5.13;;;8.70;99.90;;;;;;5014183;28;20659;-68
2024/02/22 00:55:14;;;;;;;8.77;4.97;;;8.70;99.90;;;;;;5010613;28;20726;-67
2024/02/22 00:57:41;;;;;;;7.17;4.40;;;8.70;99.90;;;;;;5007765;28;20208;-68
2024/02/22 01:00:11;;;;;;;7.90;5.00;;;8.60;99.90;;;;;;5010771;28;20255;-69
2024/02/22 01:02:38;;;;;;;6.53;4.40;;;8.70;99.90;;;;;;5010770;28;20582;-68
2024/02/22 01:05:05;;;;;;;7.93;4.90;;;8.70;99.90;;;;;;5010630;28;20386;-69
2024/02/22 01:07:35;;;;;;;8.73;5.70;;;8.80;99.90;;;;;;5011155;28;20288;-68
2024/02/22 01:10:03;;;;;;;11.27;6.00;;;8.80;99.90;;;;;;5016260;28;20198;-68
2024/02/22 01:12:32;;;;;;;9.17;4.83;;;8.90;99.90;;;;;;5011802;28;20264;-68
2024/02/22 01:14:59;;;;;;;10.20;5.97;;;8.90;99.90;;;;;;5007152;28;20586;-68
2024/02/22 01:17:26;;;;;;;10.40;5.90;;;8.90;99.90;;;;;;4989862;28;20209;-68
2024/02/22 01:19:54;;;;;;;8.77;5.70;;;8.90;99.90;;;;;;5008979;28;20208;-68
2024/02/22 01:22:21;;;;;;;8.60;5.67;;;9.00;99.90;;;;;;4985656;28;20637;-69
2024/02/22 01:24:48;;;;;;;9.10;5.33;;;9.00;99.90;;;;;;5007355;28;20614;-68
2024/02/22 01:27:15;;;;;;;6.33;4.07;;;9.10;99.90;;;;;;5013079;28;20542;-68
2024/02/22 01:29:43;;;;;;;7.73;5.43;;;9.10;99.90;;;;;;5009935;28;20226;-68
2024/02/22 01:32:11;;;;;;;7.00;4.80;;;9.10;99.90;;;;;;5016610;28;20580;-67
2024/02/22 01:34:38;;;;;;;7.57;4.97;;;9.10;99.90;;;;;;5009783;28;20203;-67
2024/02/22 01:37:05;;;;;;;12.97;7.27;;;9.20;99.90;;;;;;5013740;28;20289;-67
2024/02/22 01:39:32;;;;;;;12.30;7.50;;;9.20;99.90;;;;;;4992937;28;20216;-67
2024/02/22 01:41:59;;;;;;;10.03;6.57;;;9.20;99.90;;;;;;5025392;28;20193;-68
2024/02/22 01:44:29;;;;;;;8.33;6.10;;;9.20;99.90;;;;;;5009272;28;20198;-67
2024/02/22 01:46:58;;;;;;;12.57;7.60;;;9.20;99.90;;;;;;5010415;28;20199;-67
2024/02/22 01:49:25;;;;;;;16.57;9.47;;;9.20;99.90;;;;;;5009767;28;20265;-67
2024/02/22 01:51:58;;;;;;;12.00;7.60;;;9.30;99.90;;;;;;5014106;28;20193;-68
2024/02/22 01:54:25;;;;;;;16.43;9.87;;;9.30;99.90;;;;;;5018963;28;20751;-68
2024/02/22 01:56:53;;;;;;;20.33;11.03;;;9.30;99.90;;;;;;5013944;28;20226;-68
2024/02/22 01:59:21;;;;;;;17.53;11.00;;;9.30;99.90;;;;;;5012952;28;20200;-67
2024/02/22 02:01:50;;;;;;;14.00;9.63;;;9.40;99.90;;;;;;5012343;28;20302;-68
2024/02/22 02:04:20;;;;;;;11.90;7.90;;;9.40;99.90;;;;;;4999072;28;20700;-67
2024/02/22 02:06:47;;;;;;;11.83;7.83;;;9.40;99.90;;;;;;5018949;28;20186;-68
2024/02/22 02:09:16;;;;;;;11.13;6.63;;;9.40;99.90;;;;;;5014701;28;20209;-67
2024/02/22 02:11:44;;;;;;;14.60;8.53;;;9.40;99.90;;;;;;5013387;28;20203;-67
2024/02/22 02:14:11;;;;;;;13.17;7.93;;;9.40;99.90;;;;;;5007024;28;20195;-68
2024/02/22 02:16:38;;;;;;;11.17;7.67;;;9.40;99.90;;;;;;5022363;28;20644;-68
2024/02/22 02:19:11;;;;;;;12.30;6.87;;;9.40;99.90;;;;;;5010825;28;20735;-67
2024/02/22 02:21:46;;;;;;;12.03;7.03;;;9.40;99.90;;;;;;5011747;28;20215;-68
2024/02/22 02:24:27;;;;;;;10.77;6.83;;;9.40;99.90;;;;;;5014708;28;20197;-68
2024/02/22 02:26:56;;;;;;;10.77;5.83;;;9.40;99.90;;;;;;5009355;28;20199;-67
2024/02/22 02:29:24;;;;;;;7.93;5.47;;;9.40;99.90;;;;;;5012493;28;20199;-67
2024/02/22 02:31:52;;;;;;;9.80;6.00;;;9.40;99.90;;;;;;5008616;28;20198;-67
2024/02/22 02:34:19;;;;;;;7.97;5.37;;;9.30;99.90;;;;;;5018550;28;20659;-67
2024/02/22 02:36:46;;;;;;;11.17;6.40;;;9.30;99.90;;;;;;5012912;28;20210;-67
2024/02/22 02:39:13;;;;;;;10.70;5.60;;;9.30;99.90;;;;;;5016274;28;20198;-67
2024/02/22 02:41:40;;;;;;;13.93;7.03;;;9.30;99.90;;;;;;5015210;28;20276;-67
2024/02/22 02:44:09;;;;;;;10.37;6.33;;;9.40;99.90;;;;;;5016456;28;20604;-67
2024/02/22 02:46:36;;;;;;;14.63;7.30;;;9.40;99.90;;;;;;5012863;28;20240;-67
2024/02/22 02:49:03;;;;;;;12.90;6.93;;;9.30;99.90;;;;;;5024614;28;20198;-67
2024/02/22 02:51:31;;;;;;;11.40;6.93;;;9.30;99.90;;;;;;5018866;28;20626;-67
2024/02/22 02:53:58;;;;;;;11.40;6.83;;;9.20;99.90;;;;;;5019872;28;20615;-67
2024/02/22 02:56:25;;;;;;;11.57;6.50;;;9.20;99.90;;;;;;5012166;28;20640;-67
2024/02/22 02:58:52;;;;;;;12.70;6.87;;;9.20;99.90;;;;;;5017619;28;20285;-67
2024/02/22 03:01:20;;;;;;;12.87;6.90;;;9.20;99.90;;;;;;5012781;28;20222;-68
2024/02/22 03:03:47;;;;;;;14.57;7.20;;;9.20;99.90;;;;;;5021746;28;20237;-67
2024/02/22 03:06:14;;;;;;;12.23;6.87;;;9.20;99.90;;;;;;5012056;28;20220;-67
2024/02/22 03:08:41;;;;;;;10.07;5.93;;;9.20;99.90;;;;;;5020246;28;20194;-68
2024/02/22 03:11:09;;;;;;;8.47;5.60;;;9.20;99.90;;;;;;5007054;28;20275;-68
2024/02/22 03:13:36;;;;;;;9.67;6.30;;;9.20;99.90;;;;;;5020484;28;20251;-68
2024/02/22 03:16:04;;;;;;;11.07;6.60;;;9.20;99.90;;;;;;5003341;28;20211;-67
2024/02/22 03:18:34;;;;;;;13.80;6.60;;;9.20;99.90;;;;;;5019579;28;20194;-68
2024/02/22 03:21:01;;;;;;;13.33;7.50;;;9.20;99.90;;;;;;5002948;28;20233;-67
2024/02/22 03:23:28;;;;;;;13.83;7.40;;;9.20;99.90;;;;;;5015415;28;20221;-68
2024/02/22 03:25:56;;;;;;;9.67;6.17;;;9.10;99.90;;;;;;5024024;28;20203;-68
2024/02/22 03:28:23;;;;;;;16.07;7.03;;;9.10;99.90;;;;;;5011732;28;20256;-68
2024/02/22 03:30:52;;;;;;;9.67;5.37;;;9.10;99.90;;;;;;5012804;28;20245;-68
2024/02/22 03:33:19;;;;;;;8.97;5.93;;;9.00;99.90;;;;;;5014385;28;20609;-68
2024/02/22 03:35:47;;;;;;;11.33;7.03;;;9.00;99.90;;;;;;4997322;28;20313;-68
2024/02/22 03:38:14;;;;;;;13.37;6.43;;;9.00;99.90;;;;;;4995919;28;20653;-68
2024/02/22 03:40:41;;;;;;;10.37;6.10;;;9.00;99.90;;;;;;5006100;28;20203;-68
2024/02/22 03:43:08;;;;;;;13.37;6.97;;;9.00;99.90;;;;;;5015142;28;20231;-68
2024/02/22 03:45:35;;;;;;;14.07;6.90;;;9.00;99.90;;;;;;5019161;28;20222;-68
2024/02/22 03:48:03;;;;;;;11.73;6.53;;;8.90;99.90;;;;;;5016941;28;20205;-68
2024/02/22 03:50:30;;;;;;;9.17;5.57;;;8.90;99.90;;;;;;5013595;28;20681;-68
2024/02/22 03:52:58;;;;;;;9.53;5.60;;;8.90;99.90;;;;;;5009653;28;20205;-69
2024/02/22 03:55:25;;;;;;;9.27;5.40;;;8.90;99.90;;;;;;5012916;28;20271;-68
2024/02/22 03:57:53;;;;;;;17.30;7.77;;;8.90;99.90;;;;;;5011016;28;20213;-68
2024/02/22 04:00:20;;;;;;;10.57;7.00;;;8.90;99.90;;;;;;5003362;28;20197;-67
2024/02/22 04:02:48;;;;;;;9.97;6.43;;;8.80;99.90;;;;;;5013031;28;20201;-67
2024/02/22 04:05:15;;;;;;;12.27;6.10;;;8.80;99.90;;;;;;5013258;28;20221;-68
2024/02/22 04:07:43;;;;;;;6.93;5.30;;;8.80;99.90;;;;;;5012534;28;20241;-67
2024/02/22 04:10:11;;;;;;;8.87;5.93;;;8.80;99.90;;;;;;5013321;28;20191;-67
2024/02/22 04:12:39;;;;;;;7.03;4.53;;;8.80;99.90;;;;;;5012817;28;20204;-67
2024/02/22 04:15:07;;;;;;;10.60;5.73;;;8.80;99.90;;;;;;5024571;28;20284;-67
2024/02/22 04:17:34;;;;;;;13.27;5.97;;;8.80;99.90;;;;;;5013120;28;20265;-67
2024/02/22 04:20:02;;;;;;;9.53;5.60;;;8.80;99.90;;;;;;5011558;28;20208;-67
2024/02/22 04:22:29;;;;;;;9.83;5.43;;;8.80;99.90;;;;;;5013274;28;20205;-67
2024/02/22 04:24:56;;;;;;;7.40;4.70;;;8.80;99.90;;;;;;5019750;28;20708;-68
2024/02/22 04:27:24;;;;;;;5.97;4.33;;;8.80;99.90;;;;;;5021862;28;20200;-69
2024/02/22 04:29:51;;;;;;;9.80;6.23;;;8.80;99.90;;;;;;5018019;28;20225;-68
2024/02/22 04:32:18;;;;;;;14.30;7.27;;;8.80;99.90;;;;;;5011350;28;20278;-68
2024/02/22 04:34:45;;;;;;;10.33;6.50;;;8.80;99.90;;;;;;5014852;28;20230;-68
2024/02/22 04:37:17;;;;;;;11.30;7.00;;;8.80;99.90;;;;;;5010440;28;20297;-68
2024/02/22 04:39:44;;;;;;;12.77;7.03;;;8.80;99.90;;;;;;5014140;28;20200;-68
2024/02/22 04:42:11;;;;;;;12.63;6.87;;;8.70;99.90;;;;;;5019935;28;20209;-68
2024/02/22 04:44:39;;;;;;;9.33;6.40;;;8.70;99.90;;;;;;5018788;28;20653;-67
2024/02/22 04:47:06;;;;;;;11.07;6.30;;;8.70;99.90;;;;;;5018222;28;20247;-67
2024/02/22 04:49:34;;;;;;;11.10;6.70;;;8.70;99.90;;;;;;5014364;28;20207;-67
2024/02/22 04:52:03;;;;;;;12.20;7.03;;;8.70;99.90;;;;;;5011153;28;20208;-67
2024/02/22 04:54:32;;;;;;;14.27;6.80;;;8.70;99.90;;;;;;5012198;28;20233;-68
2024/02/22 04:56:59;;;;;;;11.83;6.87;;;8.70;99.90;;;;;;5009532;28;20217;-67
2024/02/22 04:59:26;;;;;;;14.07;6.67;;;8.60;99.90;;;;;;5011007;28;20193;-68
2024/02/22 05:01:54;;;;;;;12.20;7.07;;;8.60;99.90;;;;;;5011855;28;20196;-68
2024/02/22 05:04:21;;;;;;;18.27;8.73;;;8.50;99.90;;;;;;5011957;28;20263;-68
2024/02/22 05:06:48;;;;;;;16.60;8.63;;;8.50;99.90;;;;;;5010361;28;20274;-68
2024/02/22 05:09:15;;;;;;;16.10;8.80;;;8.50;99.90;;;;;;5010554;28;20226;-68
2024/02/22 05:11:46;;;;;;;15.33;7.77;;;8.40;99.90;;;;;;5010894;28;20206;-69
2024/02/22 05:14:14;;;;;;;20.30;9.60;;;8.40;99.90;;;;;;5010965;28;20210;-68
2024/02/22 05:16:41;;;;;;;16.50;8.57;;;8.40;99.90;;;;;;5021011;28;20216;-68
2024/02/22 05:19:10;;;;;;;18.30;9.60;;;8.40;99.90;;;;;;5011530;28;20208;-67
2024/02/22 05:21:37;;;;;;;15.77;9.33;;;8.40;99.90;;;;;;5015323;28;20224;-66
2024/02/22 05:24:04;;;;;;;19.37;9.37;;;8.30;99.90;;;;;;5010971;28;20341;-68
2024/02/22 05:26:31;;;;;;;18.87;9.90;;;8.30;99.90;;;;;;5014320;28;20197;-68
2024/02/22 05:28:58;;;;;;;16.97;8.60;;;8.30;99.90;;;;;;5010392;28;20225;-68
2024/02/22 05:31:28;;;;;;;15.10;9.27;;;8.20;99.90;;;;;;5009667;28;20198;-67
2024/02/22 05:33:55;;;;;;;19.60;10.40;;;8.20;99.90;;;;;;5010329;28;20258;-67
2024/02/22 05:36:24;;;;;;;19.47;10.73;;;8.20;99.90;;;;;;5014410;28;20211;-68
2024/02/22 05:38:51;;;;;;;25.07;12.00;;;8.10;99.90;;;;;;5017928;28;20216;-68
2024/02/22 05:41:18;;;;;;;18.53;10.67;;;8.10;99.90;;;;;;5011683;28;20279;-67
2024/02/22 05:43:45;;;;;;;22.97;11.87;;;8.10;99.90;;;;;;5004345;28;20202;-69
2024/02/22 05:46:12;;;;;;;23.13;12.17;;;8.00;99.90;;;;;;5017566;28;20202;-68
2024/02/22 05:48:39;;;;;;;22.30;12.67;;;8.00;99.90;;;;;;5009853;28;20273;-66
2024/02/22 05:51:06;;;;;;;32.23;13.37;;;8.00;99.90;;;;;;5017548;28;20606;-68
2024/02/22 05:53:35;;;;;;;21.83;11.83;;;7.90;99.90;;;;;;5010999;28;20207;-68
2024/02/22 05:56:02;;;;;;;22.13;12.20;;;7.90;99.90;;;;;;5019634;28;20187;-67
2024/02/22 05:58:29;;;;;;;20.33;11.40;;;7.90;99.90;;;;;;5014056;28;20202;-68
2024/02/22 06:00:56;;;;;;;27.77;11.87;;;7.90;99.90;;;;;;5014303;28;20258;-67
2024/02/22 06:03:23;;;;;;;22.07;12.53;;;7.80;99.90;;;;;;5009950;28;20282;-67
2024/02/22 06:05:50;;;;;;;25.20;13.17;;;7.80;99.90;;;;;;5010726;28;20254;-67
2024/02/22 06:08:18;;;;;;;22.00;11.93;;;7.80;99.90;;;;;;5010678;28;20306;-67
2024/02/22 06:10:47;;;;;;;25.37;12.90;;;7.80;99.90;;;;;;5013158;28;20201;-67
2024/02/22 06:13:14;;;;;;;22.07;11.97;;;7.80;99.90;;;;;;5009448;28;20686;-67
2024/02/22 06:15:41;;;;;;;21.87;11.73;;;7.80;99.90;;;;;;5019408;28;20208;-68
2024/02/22 06:18:08;;;;;;;17.93;10.83;;;7.80;99.90;;;;;;5007489;28;20223;-69
2024/02/22 06:20:35;;;;;;;20.50;11.13;;;7.70;99.90;;;;;;5010479;28;20199;-68
2024/02/22 06:23:03;;;;;;;15.37;9.47;;;7.80;99.90;;;;;;5010024;28;20195;-67
2024/02/22 06:25:30;;;;;;;22.10;10.83;;;7.80;99.90;;;;;;4990060;28;20200;-68
2024/02/22 06:27:59;;;;;;;20.83;11.33;;;7.80;99.90;;;;;;4999527;28;20614;-67
2024/02/22 06:30:26;;;;;;;15.90;9.47;;;7.80;99.90;;;;;;5003231;28;20186;-67
2024/02/22 06:32:53;;;;;;;18.87;9.40;;;7.90;99.90;;;;;;5009491;28;20207;-68
2024/02/22 06:35:21;;;;;;;16.50;9.70;;;7.80;99.90;;;;;;4991741;28;20278;-67
2024/02/22 06:37:49;;;;;;;16.83;9.40;;;7.80;99.90;;;;;;5012864;28;20294;-68
2024/02/22 06:40:16;;;;;;;11.63;7.93;;;7.90;99.90;;;;;;5011009;28;20565;-67
2024/02/22 06:42:43;;;;;;;17.67;10.33;;;7.90;99.90;;;;;;5003621;28;20239;-68
2024/02/22 06:45:12;;;;;;;18.13;9.27;;;7.90;99.90;;;;;;5014252;28;20641;-67
2024/02/22 06:47:39;;;;;;;23.13;11.30;;;8.00;99.90;;;;;;5016799;28;20223;-68
2024/02/22 06:50:07;;;;;;;25.17;13.17;;;8.00;99.90;;;;;;5013464;28;20201;-69
2024/02/22 06:52:34;;;;;;;21.13;11.87;;;8.00;99.90;;;;;;5015685;28;20275;-68
2024/02/22 06:55:01;;;;;;;24.83;11.90;;;8.00;99.90;;;;;;5013061;28;20199;-68
2024/02/22 06:57:29;;;;;;;20.83;11.47;;;8.10;99.90;;;;;;5017645;28;20216;-66
2024/02/22 06:59:56;;;;;;;19.90;10.33;;;8.00;99.90;;;;;;4996804;28;20214;-69
2024/02/22 07:02:25;;;;;;;25.20;11.60;;;8.00;99.90;;;;;;5013603;28;20214;-67
2024/02/22 07:04:52;;;;;;;22.30;11.23;;;8.10;99.90;;;;;;4991820;28;20392;-68
2024/02/22 07:07:19;;;;;;;23.60;11.80;;;8.10;99.90;;;;;;5011058;28;20909;-68
2024/02/22 07:09:46;;;;;;;20.50;11.53;;;8.10;99.90;;;;;;5009308;28;20219;-68
2024/02/22 07:12:13;;;;;;;19.60;10.63;;;8.10;99.90;;;;;;5013362;28;20766;-68
2024/02/22 07:14:40;;;;;;;21.97;11.33;;;8.20;99.90;;;;;;5006742;28;20266;-67
2024/02/22 07:17:08;;;;;;;19.80;10.27;;;8.20;99.90;;;;;;5009167;28;20221;-68
2024/02/22 07:19:36;;;;;;;23.57;12.50;;;8.30;99.90;;;;;;5008106;28;20194;-68
2024/02/22 07:22:03;;;;;;;26.20;13.23;;;8.30;99.90;;;;;;5004723;28;20318;-67
2024/02/22 07:24:30;;;;;;;26.93;13.43;;;8.40;99.90;;;;;;4992533;28;20577;-67
2024/02/22 07:26:58;;;;;;;24.30;13.70;;;8.40;99.90;;;;;;5012038;28;20197;-67
2024/02/22 07:29:25;;;;;;;21.47;12.33;;;8.40;99.90;;;;;;5008132;28;20752;-67
2024/02/22 07:31:52;;;;;;;24.83;13.27;;;8.40;99.90;;;;;;4999651;28;20213;-68
2024/02/22 07:34:19;;;;;;;25.93;13.87;;;8.50;99.90;;;;;;5008772;28;20232;-67
2024/02/22 07:36:47;;;;;;;24.90;13.60;;;8.50;99.90;;;;;;5011342;28;20216;-68
2024/02/22 07:39:14;;;;;;;24.87;13.20;;;8.50;99.90;;;;;;5016962;28;20192;-68
2024/02/22 07:41:44;;;;;;;23.10;13.13;;;8.50;99.90;;;;;;5015061;28;20671;-67
2024/02/22 07:44:11;;;;;;;25.67;12.60;;;8.50;99.90;;;;;;5003263;28;20222;-68
2024/02/22 07:46:39;;;;;;;28.90;14.30;;;8.50;99.90;;;;;;5018940;28;20202;-69
2024/02/22 07:49:06;;;;;;;27.50;13.67;;;8.50;99.90;;;;;;4992720;28;20674;-67
2024/02/22 07:51:33;;;;;;;29.30;14.20;;;8.50;99.90;;;;;;5017173;28;20274;-67
2024/02/22 07:54:01;;;;;;;27.73;13.23;;;8.50;99.90;;;;;;5009598;28;20188;-67
2024/02/22 07:56:29;;;;;;;28.03;15.17;;;8.50;99.90;;;;;;5013879;28;20621;-66
2024/02/22 07:58:58;;;;;;;27.37;14.00;;;8.50;99.90;;;;;;5014392;28;20208;-67
2024/02/22 08:01:25;;;;;;;31.23;14.93;;;8.40;99.90;;;;;;5020406;28;20211;-68
2024/02/22 08:03:53;;;;;;;27.23;14.37;;;8.40;99.90;;;;;;5008361;28;20227;-66
2024/02/22 08:06:21;;;;;;;24.10;13.23;;;8.40;99.90;;;;;;5003395;28;20274;-65
2024/02/22 08:08:48;;;;;;;27.57;13.47;;;8.40;99.90;;;;;;5012288;28;20192;-68
2024/02/22 08:11:16;;;;;;;29.77;14.43;;;8.40;99.90;;;;;;4992376;28;20204;-67
2024/02/22 08:13:44;;;;;;;28.03;13.93;;;8.40;99.90;;;;;;5009921;28;20192;-68
2024/02/22 08:16:12;;;;;;;28.70;14.43;;;8.40;99.90;;;;;;5007746;28;20196;-67
2024/02/22 08:18:40;;;;;;;30.50;14.90;;;8.40;99.90;;;;;;5013893;28;20243;-68
2024/02/22 08:21:08;;;;;;;27.60;14.57;;;9.20;99.90;;;;;;4994383;28;20551;-66
2024/02/22 08:23:35;;;;;;;31.43;15.07;;;8.40;99.90;;;;;;4991992;28;20200;-67
2024/02/22 08:26:02;;;;;;;28.63;13.67;;;8.40;99.90;;;;;;5005635;28;20203;-67
2024/02/22 08:28:32;;;;;;;32.43;15.53;;;8.40;99.90;;;;;;5010145;28;20196;-67
2024/02/22 08:31:00;;;;;;;25.47;13.20;;;8.50;99.90;;;;;;5003337;28;20253;-67
2024/02/22 08:33:28;;;;;;;24.80;13.67;;;8.50;99.90;;;;;;4985679;28;20216;-67
2024/02/22 08:35:56;;;;;;;27.73;14.43;;;8.50;99.90;;;;;;5008418;28;20213;-68
2024/02/22 08:38:25;;;;;;;32.10;15.23;;;8.60;99.90;;;;;;5007783;28;20690;-68
2024/02/22 08:40:52;;;;;;;28.00;13.83;;;8.60;99.90;;;;;;4994272;28;20254;-67
2024/02/22 08:43:20;;;;;;;26.37;14.37;;;8.60;99.90;;;;;;5010345;28;20201;-66
2024/02/22 08:45:49;;;;;;;27.57;13.93;;;8.60;99.90;;;;;;5005297;28;20230;-66
2024/02/22 08:48:16;;;;;;;27.57;14.23;;;8.60;99.90;;;;;;5012268;28;20198;-67
2024/02/22 08:50:43;;;;;;;22.77;12.33;;;8.60;99.90;;;;;;4994384;28;20250;-66
2024/02/22 08:53:10;;;;;;;29.77;13.63;;;8.70;99.90;;;;;;5009906;28;20194;-67
2024/02/22 08:55:37;;;;;;;21.70;10.80;;;8.70;99.90;;;;;;4992620;28;20219;-67
2024/02/22 08:58:04;;;;;;;22.23;11.77;;;8.80;99.90;;;;;;5018545;28;20211;-67
2024/02/22 09:00:32;;;;;;;24.80;12.73;;;8.80;99.90;;;;;;5002971;28;20566;-67
2024/02/22 09:03:01;;;;;;;22.03;11.60;;;8.80;99.90;;;;;;5014605;28;20296;-68
2024/02/22 09:05:28;;;;;;;25.93;12.20;;;8.90;99.90;;;;;;5005190;28;20193;-68
2024/02/22 09:07:55;;;;;;;28.70;12.30;;;9.00;99.90;;;;;;5019293;28;20187;-65
2024/02/22 09:10:22;;;;;;;18.43;10.07;;;9.20;99.90;;;;;;5036662;28;20190;-67
2024/02/22 09:12:49;;;;;;;22.17;11.80;;;9.30;99.90;;;;;;5020065;28;20282;-66
2024/02/22 09:15:16;;;;;;;21.33;10.77;;;9.40;99.90;;;;;;5030617;28;20285;-67
2024/02/22 09:17:44;;;;;;;25.47;12.47;;;9.40;99.90;;;;;;5016093;28;20273;-66
2024/02/22 09:20:14;;;;;;;23.67;12.40;;;9.50;99.90;;;;;;4999819;28;20793;-66
2024/02/22 09:22:42;;;;;;;19.60;11.03;;;9.50;99.90;;;;;;5007284;28;20206;-67
2024/02/22 09:25:10;;;;;;;20.23;10.57;;;9.60;99.90;;;;;;5003138;28;20285;-67
2024/02/22 09:27:37;;;;;;;22.43;10.43;;;9.70;99.90;;;;;;5010573;28;20217;-67
2024/02/22 09:30:06;;;;;;;23.67;10.37;;;9.70;99.90;;;;;;5008041;28;20200;-68
2024/02/22 09:32:33;;;;;;;23.23;10.67;;;9.80;99.90;;;;;;5016283;28;20211;-67
2024/02/22 09:35:00;;;;;;;28.83;13.10;;;10.00;99.90;;;;;;5009286;28;20202;-67
2024/02/22 09:37:30;;;;;;;22.07;12.07;;;10.10;99.90;;;;;;5007873;28;20907;-68
2024/02/22 09:39:57;;;;;;;22.20;12.27;;;10.30;99.90;;;;;;5015290;28;20224;-67
2024/02/22 09:42:26;;;;;;;24.07;11.50;;;10.40;99.90;;;;;;5014347;28;20202;-67
2024/02/22 09:44:55;;;;;;;19.43;10.70;;;10.40;99.90;;;;;;5005408;28;20197;-66
2024/02/22 09:47:22;;;;;;;27.30;12.60;;;10.40;99.90;;;;;;5003603;28;20185;-66
2024/02/22 09:49:50;;;;;;;23.37;12.10;;;10.30;99.90;;;;;;5011075;28;20650;-66
2024/02/22 09:52:19;;;;;;;20.80;10.87;;;10.30;99.90;;;;;;5009055;28;20689;-67
2024/02/22 09:54:48;;;;;;;20.00;10.90;;;10.20;99.90;;;;;;5005940;28;20203;-67
2024/02/22 09:57:16;;;;;;;19.87;10.30;;;10.30;99.90;;;;;;5013381;28;20605;-67
2024/02/22 09:59:49;;;;;;;28.90;12.20;;;10.40;99.90;;;;;;5016397;28;20293;-66
2024/02/22 10:02:16;;;;;;;21.23;10.73;;;10.50;99.90;;;;;;5010044;28;20197;-66
2024/02/22 10:04:52;;;;;;;24.07;10.93;;;10.60;99.90;;;;;;5000468;28;20775;-67
2024/02/22 10:07:23;;;;;;;18.10;9.83;;;10.80;99.90;;;;;;5011257;28;20199;-67
2024/02/22 10:09:51;;;;;;;24.40;10.20;;;10.90;99.90;;;;;;5005373;28;20213;-67
2024/02/22 10:12:25;;;;;;;20.50;10.57;;;11.10;99.90;;;;;;5017342;28;20204;-67
2024/02/22 10:14:53;;;;;;;17.37;9.30;;;11.30;99.90;;;;;;5001285;28;20314;-66
2024/02/22 10:17:25;;;;;;;19.33;9.30;;;11.70;99.90;;;;;;5008727;28;20204;-67
2024/02/22 10:19:56;;;;;;;19.97;10.30;;;12.10;99.90;;;;;;5008741;28;20288;-67
2024/02/22 10:22:24;;;;;;;18.20;9.60;;;12.50;99.90;;;;;;5011599;28;20310;-67
2024/02/22 10:24:53;;;;;;;22.37;10.60;;;12.90;99.90;;;;;;5013165;28;20290;-67
2024/02/22 10:27:22;;;;;;;18.33;9.80;;;13.20;99.90;;;;;;5004917;28;20277;-68
2024/02/22 10:29:49;;;;;;;20.20;9.40;;;13.40;99.90;;;;;;5011409;28;20229;-67
2024/02/22 10:32:18;;;;;;;18.73;9.07;;;13.60;99.90;;;;;;5013069;28;20197;-67
2024/02/22 10:34:49;;;;;;;19.03;9.23;;;13.70;99.90;;;;;;5011206;28;20211;-67
2024/02/22 10:37:16;;;;;;;17.33;9.13;;;13.90;99.90;;;;;;4992936;28;20375;-66
2024/02/22 10:39:45;;;;;;;18.00;8.97;;;13.70;99.90;;;;;;5007725;28;20709;-67
2024/02/22 10:42:14;;;;;;;17.00;8.73;;;13.30;99.90;;;;;;5009780;28;20229;-67
2024/02/22 10:44:43;;;;;;;23.87;9.70;;;12.90;99.90;;;;;;5006221;28;20250;-67
2024/02/22 10:47:11;;;;;;;18.47;9.37;;;12.50;99.90;;;;;;5004728;28;20205;-67
2024/02/22 10:49:39;;;;;;;18.57;9.20;;;12.20;99.90;;;;;;5008605;28;20233;-68
2024/02/22 10:52:07;;;;;;;18.80;8.73;;;12.10;99.90;;;;;;5014908;28;20719;-67
2024/02/22 10:54:35;;;;;;;21.47;9.37;;;12.40;99.90;;;;;;5010668;28;20266;-67
2024/02/22 10:57:03;;;;;;;19.57;9.53;;;12.90;99.90;;;;;;5013505;28;20191;-67
2024/02/22 10:59:34;;;;;;;17.33;8.73;;;13.00;99.90;;;;;;5011858;28;20694;-67
2024/02/22 11:02:03;;;;;;;15.63;8.10;;;12.90;99.90;;;;;;5014884;28;20222;-67
2024/02/22 11:04:32;;;;;;;21.00;9.23;;;12.70;99.90;;;;;;4990039;28;20788;-67
2024/02/22 11:07:06;;;;;;;20.47;8.83;;;12.50;99.90;;;;;;5010101;28;21470;-67
2024/02/22 11:09:38;;;;;;;22.03;9.47;;;12.30;99.90;;;;;;5013054;28;20202;-67
2024/02/22 11:12:07;;;;;;;17.27;8.77;;;12.30;99.90;;;;;;5010614;28;20203;-67
2024/02/22 11:14:37;;;;;;;19.00;9.90;;;12.20;99.90;;;;;;5012426;28;20275;-67
2024/02/22 11:17:15;;;;;;;15.70;8.50;;;12.20;99.90;;;;;;5022047;28;20261;-67
2024/02/22 11:19:44;;;;;;;14.07;8.30;;;12.20;99.90;;;;;;5003498;28;20951;-67
2024/02/22 11:22:15;;;;;;;15.63;8.77;;;12.20;99.90;;;;;;5015556;28;20830;-68
2024/02/22 11:24:43;;;;;;;18.03;9.37;;;12.40;99.90;;;;;;5016339;28;20199;-67
2024/02/22 11:27:10;;;;;;;18.23;8.57;;;12.60;99.90;;;;;;5007639;28;20679;-67
2024/02/22 11:29:38;;;;;;;14.70;7.30;;;12.70;99.90;;;;;;5015693;28;20269;-68
2024/02/22 11:32:06;;;;;;;18.83;8.40;;;12.80;99.90;;;;;;5008880;28;20191;-67
2024/02/22 11:34:34;;;;;;;18.13;9.43;;;12.90;99.90;;;;;;5017028;28;20244;-66
2024/02/22 11:37:16;;;;;;;18.50;8.43;;;12.90;99.90;;;;;;5018472;28;20546;-67
2024/02/22 11:39:44;;;;;;;17.77;9.33;;;13.10;99.90;;;;;;5011633;28;20261;-66
2024/02/22 11:42:16;;;;;;;13.87;8.33;;;13.10;99.90;;;;;;5011786;28;20637;-67
2024/02/22 11:44:44;;;;;;;17.07;8.63;;;13.00;99.90;;;;;;5009267;28;20197;-67
2024/02/22 11:47:12;;;;;;;14.87;7.80;;;13.00;99.90;;;;;;5013589;28;20286;-67
2024/02/22 11:49:40;;;;;;;16.20;8.17;;;12.90;99.90;;;;;;5009060;28;20191;-66
2024/02/22 11:52:07;;;;;;;15.00;8.07;;;12.90;99.90;;;;;;5015026;28;20257;-67
2024/02/22 11:54:35;;;;;;;20.83;8.93;;;12.90;99.90;;;;;;5017976;28;20194;-66
2024/02/22 11:57:03;;;;;;;16.27;7.77;;;12.90;99.90;;;;;;4995145;28;20211;-66
2024/02/22 11:59:30;;;;;;;16.53;7.67;;;12.90;99.90;;;;;;5020585;28;20647;-66
2024/02/22 12:02:00;;;;;;;12.97;7.73;;;12.80;99.90;;;;;;5008048;28;20492;-67
2024/02/22 12:04:30;;;;;;;16.53;8.13;;;12.70;99.90;;;;;;5013413;28;20237;-67
2024/02/22 12:06:58;;;;;;;15.80;7.43;;;12.70;99.90;;;;;;5002561;28;20230;-67
2024/02/22 12:09:25;;;;;;;17.07;7.57;;;12.60;99.90;;;;;;5021432;28;20691;-66
2024/02/22 12:11:53;;;;;;;14.87;7.73;;;12.50;99.90;;;;;;4999607;28;20273;-66
2024/02/22 12:14:20;;;;;;;16.87;8.90;;;12.50;99.90;;;;;;5007026;28;20281;-66
2024/02/22 12:16:47;;;;;;;16.97;7.50;;;12.40;99.90;;;;;;5005775;28;20199;-66
2024/02/22 12:19:17;;;;;;;14.70;7.90;;;12.30;99.90;;;;;;5006656;28;20317;-66
2024/02/22 12:21:47;;;;;;;14.90;7.90;;;12.20;99.90;;;;;;4996682;28;20656;-66
2024/02/22 12:24:14;;;;;;;14.87;7.77;;;12.10;99.90;;;;;;5011576;28;20193;-66
2024/02/22 12:26:41;;;;;;;13.27;7.33;;;12.10;99.90;;;;;;5006079;28;20276;-66
2024/02/22 12:29:08;;;;;;;12.17;7.43;;;12.10;99.90;;;;;;5006154;28;20210;-66
2024/02/22 12:31:35;;;;;;;12.03;6.50;;;12.20;99.90;;;;;;5012843;28;20214;-66
2024/02/22 12:34:03;;;;;;;12.43;7.40;;;12.20;99.90;;;;;;5014365;28;20214;-65
2024/02/22 12:36:31;;;;;;;10.37;6.23;;;12.20;99.90;;;;;;5008712;28;20587;-65
2024/02/22 12:38:58;;;;;;;14.77;7.00;;;12.20;99.90;;;;;;5008112;28;20218;-66
2024/02/22 12:41:25;;;;;;;15.93;7.03;;;12.20;99.90;;;;;;5010087;28;20207;-66
2024/02/22 12:43:55;;;;;;;12.47;7.30;;;12.20;99.90;;;;;;5011500;28;20223;-65
2024/02/22 12:46:22;;;;;;;12.80;6.80;;;12.20;99.90;;;;;;5008535;28;20286;-66